createdAt,value
2018-12-06T00:02:06.280Z,6.50
2018-12-06T00:04:33.880Z,6.37
2018-12-06T00:07:01.458Z,5.90
2018-12-06T00:09:29.094Z,5.43
2018-12-06T00:11:56.683Z,5.90
2018-12-06T00:14:24.327Z,7.07
2018-12-06T00:16:54.286Z,5.30
2018-12-06T00:19:21.863Z,5.93
2018-12-06T00:21:49.396Z,6.40
2018-12-06T00:24:16.915Z,6.63
2018-12-06T00:26:44.597Z,6.30
2018-12-06T00:29:12.235Z,6.37
2018-12-06T00:31:39.762Z,5.53
2018-12-06T00:34:07.418Z,7.30
2018-12-06T00:36:35.163Z,6.53
2018-12-06T00:39:02.952Z,6.33
2018-12-06T00:41:30.486Z,5.90
2018-12-06T00:43:58.143Z,5.47
2018-12-06T00:46:25.702Z,5.93
2018-12-06T00:48:53.249Z,6.63
2018-12-06T00:51:20.802Z,7.00
2018-12-06T00:53:48.331Z,5.83
2018-12-06T00:56:15.887Z,6.03
2018-12-06T00:58:43.446Z,5.30
2018-12-06T01:01:10.990Z,6.00
2018-12-06T01:03:38.526Z,6.30
2018-12-06T01:06:06.085Z,5.83
2018-12-06T01:08:33.651Z,5.97
2018-12-06T01:11:01.323Z,5.43
2018-12-06T01:13:29.196Z,5.47
2018-12-06T01:15:56.813Z,6.00
2018-12-06T01:18:24.380Z,6.10
2018-12-06T01:20:51.940Z,6.17
2018-12-06T01:23:19.530Z,6.43
2018-12-06T01:25:47.104Z,6.97
2018-12-06T01:28:14.658Z,6.57
2018-12-06T01:30:42.176Z,6.47
2018-12-06T01:33:09.713Z,6.27
2018-12-06T01:35:37.279Z,7.37
2018-12-06T01:38:04.816Z,5.97
2018-12-06T01:40:32.351Z,7.00
2018-12-06T01:42:59.912Z,6.20
2018-12-06T01:45:27.493Z,6.13
2018-12-06T01:47:55.083Z,6.53
2018-12-06T01:50:22.639Z,8.00
2018-12-06T01:52:50.173Z,6.13
2018-12-06T01:55:17.718Z,6.80
2018-12-06T01:57:45.276Z,7.10
2018-12-06T02:00:13.704Z,6.10
2018-12-06T02:02:41.254Z,7.13
2018-12-06T02:05:08.803Z,7.20
2018-12-06T02:07:36.787Z,6.67
2018-12-06T02:10:06.038Z,6.13
2018-12-06T02:12:33.740Z,6.47
2018-12-06T02:15:01.285Z,7.27
2018-12-06T02:17:28.875Z,6.80
2018-12-06T02:19:56.445Z,6.40
2018-12-06T02:22:23.981Z,6.40
2018-12-06T02:24:51.528Z,7.10
2018-12-06T02:27:19.031Z,7.63
2018-12-06T02:29:57.233Z,6.23
2018-12-06T02:32:24.846Z,8.00
2018-12-06T02:34:52.397Z,6.97
2018-12-06T02:37:19.929Z,6.40
2018-12-06T02:39:47.495Z,7.40
2018-12-06T02:42:15.086Z,7.60
2018-12-06T02:44:42.624Z,6.90
2018-12-06T02:47:10.271Z,7.67
2018-12-06T02:49:38.286Z,7.27
2018-12-06T02:52:05.857Z,7.13
2018-12-06T02:54:33.392Z,8.00
2018-12-06T02:57:00.958Z,7.87
2018-12-06T02:59:28.509Z,6.60
2018-12-06T03:01:56.024Z,7.60
2018-12-06T03:04:23.592Z,6.90
2018-12-06T03:06:51.228Z,7.70
2018-12-06T03:09:18.784Z,8.43
2018-12-06T03:11:46.293Z,8.50
2018-12-06T03:14:13.858Z,6.83
2018-12-06T03:16:41.489Z,7.10
2018-12-06T03:19:09.057Z,7.63
2018-12-06T03:21:36.609Z,6.70
2018-12-06T03:24:04.206Z,7.40
2018-12-06T03:26:31.758Z,6.70
2018-12-06T03:28:59.312Z,7.27
2018-12-06T03:31:26.912Z,7.30
2018-12-06T03:33:54.424Z,8.10
2018-12-06T03:36:21.989Z,8.00
2018-12-06T03:38:49.523Z,7.40
2018-12-06T03:41:17.077Z,7.50
2018-12-06T03:43:44.623Z,8.30
2018-12-06T03:46:12.170Z,8.20
2018-12-06T03:48:39.898Z,7.63
2018-12-06T03:51:07.627Z,7.40
2018-12-06T03:53:35.211Z,8.57
2018-12-06T03:56:02.839Z,8.27
2018-12-06T03:58:30.407Z,9.03
2018-12-06T04:00:58.093Z,8.43
2018-12-06T04:03:25.614Z,7.30
2018-12-06T04:05:53.164Z,9.20
2018-12-06T04:08:20.691Z,8.60
2018-12-06T04:10:48.320Z,8.17
2018-12-06T04:13:15.883Z,8.83
2018-12-06T04:15:43.411Z,9.37
2018-12-06T04:18:10.963Z,9.70
2018-12-06T04:20:38.505Z,8.80
2018-12-06T04:23:06.055Z,9.70
2018-12-06T04:25:33.683Z,9.40
2018-12-06T04:28:01.268Z,8.33
2018-12-06T04:30:28.792Z,8.83
2018-12-06T04:32:56.343Z,9.07
2018-12-06T04:35:23.866Z,8.30
2018-12-06T04:37:51.421Z,9.53
2018-12-06T04:40:18.961Z,9.43
2018-12-06T04:42:46.504Z,9.63
2018-12-06T04:45:14.042Z,8.20
2018-12-06T04:47:42.114Z,8.87
2018-12-06T04:50:09.752Z,9.80
2018-12-06T04:52:37.424Z,8.33
2018-12-06T04:55:05.110Z,8.77
2018-12-06T04:57:32.863Z,8.90
2018-12-06T05:00:00.414Z,9.10
2018-12-06T05:02:28.004Z,8.70
2018-12-06T05:04:55.544Z,10.27
2018-12-06T05:07:24.085Z,8.87
2018-12-06T05:09:51.622Z,8.80
2018-12-06T05:12:19.332Z,9.43
2018-12-06T05:14:46.986Z,9.67
2018-12-06T05:17:14.556Z,9.63
2018-12-06T05:19:42.683Z,10.00
2018-12-06T05:22:10.302Z,9.80
2018-12-06T05:24:38.014Z,9.67
2018-12-06T05:27:05.586Z,10.43
2018-12-06T05:29:33.177Z,9.17
2018-12-06T05:32:00.719Z,10.03
2018-12-06T05:34:28.435Z,9.70
2018-12-06T05:36:56.004Z,9.23
2018-12-06T05:39:23.717Z,10.07
2018-12-06T05:41:51.283Z,8.67
2018-12-06T05:44:18.879Z,9.50
2018-12-06T05:46:46.421Z,9.50
2018-12-06T05:49:14.159Z,9.33
2018-12-06T05:51:42.760Z,9.60
2018-12-06T05:54:10.534Z,10.00
2018-12-06T05:56:38.109Z,9.87
2018-12-06T05:59:05.653Z,8.70
2018-12-06T06:01:33.219Z,9.10
2018-12-06T06:04:00.794Z,10.00
2018-12-06T06:06:28.332Z,9.37
2018-12-06T06:08:55.911Z,9.10
2018-12-06T06:11:23.470Z,8.87
2018-12-06T06:13:51.054Z,8.60
2018-12-06T06:16:18.617Z,8.10
2018-12-06T06:18:46.191Z,9.30
2018-12-06T06:21:13.750Z,8.50
2018-12-06T06:23:41.300Z,8.30
2018-12-06T06:26:08.924Z,9.57
2018-12-06T06:28:36.495Z,9.00
2018-12-06T06:31:04.029Z,6.97
2018-12-06T06:33:31.577Z,9.47
2018-12-06T06:35:59.100Z,9.30
2018-12-06T06:38:26.734Z,9.77
2018-12-06T06:40:54.277Z,9.63
2018-12-06T06:43:21.816Z,7.93
2018-12-06T06:45:49.344Z,9.37
2018-12-06T06:48:17.005Z,9.57
2018-12-06T06:50:44.533Z,9.47
2018-12-06T06:53:12.116Z,8.77
2018-12-06T06:55:39.770Z,8.80
2018-12-06T06:58:07.352Z,8.70
2018-12-06T07:00:34.928Z,7.20
2018-12-06T07:03:02.531Z,7.83
2018-12-06T07:05:30.063Z,8.80
2018-12-06T07:07:57.612Z,8.83
2018-12-06T07:10:25.230Z,8.50
2018-12-06T07:12:52.794Z,6.97
2018-12-06T07:15:20.364Z,6.70
2018-12-06T07:17:48.033Z,6.90
2018-12-06T07:20:15.550Z,7.37
2018-12-06T07:22:43.080Z,7.00
2018-12-06T07:25:10.631Z,6.43
2018-12-06T07:27:38.187Z,6.03
2018-12-06T07:30:12.250Z,5.73
2018-12-06T07:32:35.719Z,6.43
2018-12-06T07:35:03.378Z,6.70
2018-12-06T07:37:30.918Z,7.17
2018-12-06T07:39:58.486Z,6.37
2018-12-06T07:42:26.079Z,6.30
2018-12-06T07:44:53.642Z,7.60
2018-12-06T07:47:21.162Z,5.80
2018-12-06T07:49:48.715Z,6.60
2018-12-06T07:52:16.278Z,5.70
2018-12-06T07:54:43.831Z,7.23
2018-12-06T07:57:11.389Z,6.10
2018-12-06T07:59:38.946Z,5.80
2018-12-06T08:02:06.543Z,5.80
2018-12-06T08:04:35.344Z,6.20
2018-12-06T08:07:02.897Z,6.33
2018-12-06T08:09:30.460Z,5.50
2018-12-06T08:11:58.024Z,6.10
2018-12-06T08:14:25.570Z,6.07
2018-12-06T08:16:53.435Z,5.37
2018-12-06T08:19:20.980Z,6.53
2018-12-06T08:21:48.571Z,6.30
2018-12-06T08:24:16.217Z,6.53
2018-12-06T08:26:43.749Z,6.97
2018-12-06T08:29:11.434Z,6.53
2018-12-06T08:31:38.963Z,5.97
2018-12-06T08:34:06.686Z,7.40
2018-12-06T08:36:34.304Z,7.10
2018-12-06T08:39:01.868Z,7.27
2018-12-06T08:41:29.414Z,8.17
2018-12-06T08:43:57.059Z,8.13
2018-12-06T08:46:24.610Z,8.97
2018-12-06T08:48:52.236Z,9.60
2018-12-06T08:51:19.876Z,8.67
2018-12-06T08:53:47.426Z,10.57
2018-12-06T08:56:15.006Z,8.20
2018-12-06T08:58:42.587Z,10.93
2018-12-06T09:01:10.118Z,9.07
2018-12-06T09:03:37.673Z,9.67
2018-12-06T09:06:05.266Z,10.97
2018-12-06T09:08:32.826Z,10.50
2018-12-06T09:11:00.596Z,10.63
2018-12-06T09:13:28.141Z,10.47
2018-12-06T09:15:55.826Z,10.50
2018-12-06T09:18:23.497Z,11.00
2018-12-06T09:20:51.065Z,10.67
2018-12-06T09:23:18.730Z,12.20
2018-12-06T09:25:46.480Z,14.60
2018-12-06T09:28:14.118Z,13.70
2018-12-06T09:30:41.683Z,12.93
2018-12-06T09:33:09.218Z,13.77
2018-12-06T09:35:36.772Z,14.03
2018-12-06T09:38:04.522Z,13.37
2018-12-06T09:40:32.392Z,12.80
2018-12-06T09:42:59.974Z,13.50
2018-12-06T09:45:27.605Z,11.73
2018-12-06T09:47:55.188Z,12.63
2018-12-06T09:50:22.713Z,12.50
2018-12-06T09:52:50.326Z,14.10
2018-12-06T09:55:18.088Z,11.80
2018-12-06T09:57:45.600Z,11.90
2018-12-06T10:00:15.236Z,10.17
2018-12-06T10:02:42.837Z,11.30
2018-12-06T10:05:10.642Z,9.27
2018-12-06T10:07:38.183Z,10.30
2018-12-06T10:10:06.238Z,9.43
2018-12-06T10:12:33.785Z,10.43
2018-12-06T10:15:01.350Z,11.13
2018-12-06T10:17:28.883Z,9.90
2018-12-06T10:19:56.504Z,9.60
2018-12-06T10:22:24.166Z,9.80
2018-12-06T10:24:51.864Z,10.27
2018-12-06T10:27:19.504Z,10.27
2018-12-06T10:29:47.108Z,11.13
2018-12-06T10:32:14.816Z,10.83
2018-12-06T10:34:42.400Z,10.43
2018-12-06T10:37:10.062Z,11.30
2018-12-06T10:39:37.618Z,11.43
2018-12-06T10:42:05.295Z,13.23
2018-12-06T10:44:32.997Z,12.23
2018-12-06T10:47:00.629Z,13.37
2018-12-06T10:49:28.173Z,16.80
2018-12-06T10:51:55.738Z,14.30
2018-12-06T10:54:23.943Z,13.30
2018-12-06T10:56:51.513Z,13.33
2018-12-06T10:59:19.058Z,14.73
2018-12-06T11:01:46.847Z,14.20
2018-12-06T11:04:14.467Z,15.63
2018-12-06T11:06:42.062Z,17.10
2018-12-06T11:09:09.691Z,16.83
2018-12-06T11:11:37.351Z,16.00
2018-12-06T11:14:05.080Z,16.40
2018-12-06T11:16:32.746Z,17.53
2018-12-06T11:19:00.275Z,15.27
2018-12-06T11:21:27.841Z,17.10
2018-12-06T11:23:55.441Z,17.30
2018-12-06T11:26:23.148Z,14.97
2018-12-06T11:28:50.724Z,15.27
2018-12-06T11:31:18.328Z,15.30
2018-12-06T11:33:46.042Z,13.73
2018-12-06T11:36:13.595Z,15.50
2018-12-06T11:38:41.239Z,11.67
2018-12-06T11:41:08.894Z,12.93
2018-12-06T11:43:36.453Z,12.30
2018-12-06T11:46:04.937Z,11.90
2018-12-06T11:48:32.553Z,12.47
2018-12-06T11:51:00.070Z,10.93
2018-12-06T11:53:27.635Z,11.17
2018-12-06T11:55:55.308Z,10.60
2018-12-06T11:58:22.882Z,10.77
2018-12-06T12:00:50.481Z,10.63
2018-12-06T12:03:18.101Z,10.30
2018-12-06T12:05:45.656Z,9.80
2018-12-06T12:08:13.206Z,9.73
2018-12-06T12:10:40.754Z,10.13
2018-12-06T12:13:08.315Z,9.30
2018-12-06T12:15:35.864Z,9.47
2018-12-06T12:18:03.486Z,10.23
2018-12-06T12:20:30.993Z,8.57
2018-12-06T12:22:58.631Z,8.60
2018-12-06T12:25:26.272Z,8.97
2018-12-06T12:27:53.943Z,8.00
2018-12-06T12:30:21.485Z,8.03
2018-12-06T12:32:49.068Z,8.53
2018-12-06T12:35:16.611Z,7.87
2018-12-06T12:37:44.167Z,9.20
2018-12-06T12:40:11.707Z,8.10
2018-12-06T12:42:39.482Z,8.20
2018-12-06T12:45:07.645Z,8.37
2018-12-06T12:47:35.190Z,7.80
2018-12-06T12:50:03.235Z,6.73
2018-12-06T12:52:30.815Z,6.30
2018-12-06T12:54:58.408Z,6.57
2018-12-06T12:57:26.008Z,6.20
2018-12-06T12:59:53.716Z,5.80
2018-12-06T13:02:21.303Z,7.00
2018-12-06T13:04:48.908Z,5.70
2018-12-06T13:07:16.514Z,5.30
2018-12-06T13:09:44.180Z,4.57
2018-12-06T13:12:11.730Z,5.90
2018-12-06T13:14:39.425Z,5.00
2018-12-06T13:17:07.027Z,4.83
2018-12-06T13:19:34.692Z,4.73
2018-12-06T13:22:02.242Z,5.37
2018-12-06T13:24:29.825Z,4.23
2018-12-06T13:26:57.390Z,5.00
2018-12-06T13:29:24.942Z,6.20
2018-12-06T13:31:52.526Z,5.47
2018-12-06T13:34:20.088Z,4.93
2018-12-06T13:36:47.647Z,5.23
2018-12-06T13:39:15.235Z,5.10
2018-12-06T13:41:42.799Z,5.73
2018-12-06T13:44:10.443Z,4.93
2018-12-06T13:46:38.053Z,6.03
2018-12-06T13:49:05.576Z,6.20
2018-12-06T13:51:33.110Z,5.43
2018-12-06T13:54:00.816Z,5.67
2018-12-06T13:56:28.354Z,5.33
2018-12-06T13:58:55.958Z,5.53
2018-12-06T14:01:23.669Z,4.47
2018-12-06T14:03:51.517Z,5.90
2018-12-06T14:06:52.795Z,5.93
2018-12-06T14:09:20.336Z,6.30
2018-12-06T14:11:47.902Z,5.73
2018-12-06T14:14:15.474Z,6.10
2018-12-06T14:16:43.056Z,6.77
2018-12-06T14:19:11.600Z,6.00
2018-12-06T14:21:39.163Z,6.53
2018-12-06T14:24:06.928Z,8.20
2018-12-06T14:26:34.485Z,6.57
2018-12-06T14:29:02.096Z,5.63
2018-12-06T14:31:29.724Z,6.93
2018-12-06T14:33:57.277Z,6.23
2018-12-06T14:36:25.840Z,5.43
2018-12-06T14:38:53.400Z,5.63
2018-12-06T14:41:20.953Z,6.37
2018-12-06T14:43:48.530Z,8.17
2018-12-06T14:46:16.326Z,7.47
2018-12-06T14:48:43.881Z,6.67
2018-12-06T14:51:11.686Z,6.40
2018-12-06T14:53:39.251Z,5.60
2018-12-06T14:56:06.905Z,5.70
2018-12-06T14:58:34.495Z,7.97
2018-12-06T15:01:02.134Z,4.67
2018-12-06T15:03:29.706Z,5.70
2018-12-06T15:05:57.268Z,5.23
2018-12-06T15:08:24.833Z,6.60
2018-12-06T15:10:52.398Z,6.63
2018-12-06T15:13:19.983Z,5.93
2018-12-06T15:15:47.540Z,5.60
2018-12-06T15:18:15.093Z,5.03
2018-12-06T15:20:42.652Z,6.00
2018-12-06T15:23:10.318Z,6.80
2018-12-06T15:25:41.793Z,6.10
2018-12-06T15:28:07.460Z,5.70
2018-12-06T15:30:34.999Z,5.73
2018-12-06T15:33:02.769Z,5.90
2018-12-06T15:35:30.293Z,5.37
2018-12-06T15:37:57.850Z,4.83
2018-12-06T15:40:25.441Z,5.00
2018-12-06T15:42:54.096Z,5.80
2018-12-06T15:45:21.799Z,5.37
2018-12-06T15:47:49.388Z,5.17
2018-12-06T15:50:17.087Z,4.30
2018-12-06T15:52:44.632Z,5.97
2018-12-06T15:55:12.211Z,4.50
2018-12-06T15:57:39.738Z,6.77
2018-12-06T16:00:09.775Z,5.33
2018-12-06T16:02:37.378Z,5.80
2018-12-06T16:05:05.614Z,4.60
2018-12-06T16:07:35.094Z,5.40
2018-12-06T16:10:02.790Z,5.40
2018-12-06T16:12:30.322Z,4.77
2018-12-06T16:14:57.902Z,5.40
2018-12-06T16:17:25.551Z,5.00
2018-12-06T16:19:53.085Z,3.77
2018-12-06T16:22:20.664Z,4.80
2018-12-06T16:24:48.209Z,5.13
2018-12-06T16:27:16.735Z,4.43
2018-12-06T16:29:51.353Z,4.60
2018-12-06T16:32:14.133Z,5.77
2018-12-06T16:34:41.677Z,5.07
2018-12-06T16:37:09.340Z,4.73
2018-12-06T16:39:37.002Z,4.33
2018-12-06T16:42:04.686Z,5.10
2018-12-06T16:44:32.243Z,5.00
2018-12-06T16:46:59.788Z,4.90
2018-12-06T16:49:27.553Z,5.20
2018-12-06T16:51:55.151Z,4.90
2018-12-06T16:54:22.920Z,5.10
2018-12-06T16:56:50.866Z,4.90
2018-12-06T16:59:18.739Z,5.53
2018-12-06T17:01:46.317Z,6.03
2018-12-06T17:04:14.180Z,5.43
2018-12-06T17:06:42.048Z,6.20
2018-12-06T17:09:09.916Z,5.50
2018-12-06T17:11:37.793Z,5.20
2018-12-06T17:14:05.379Z,5.80
2018-12-06T17:16:32.984Z,5.30
2018-12-06T17:19:00.796Z,5.30
2018-12-06T17:21:28.324Z,5.10
2018-12-06T17:23:55.879Z,4.93
2018-12-06T17:26:23.423Z,6.00
2018-12-06T17:28:50.970Z,5.40
2018-12-06T17:31:18.510Z,5.50
2018-12-06T17:33:46.190Z,5.23
2018-12-06T17:36:14.148Z,4.90
2018-12-06T17:38:41.723Z,4.87
2018-12-06T17:41:10.213Z,4.77
2018-12-06T17:43:38.172Z,5.20
2018-12-06T17:46:06.047Z,4.60
2018-12-06T17:48:33.916Z,5.33
2018-12-06T17:51:01.790Z,5.33
2018-12-06T17:53:29.406Z,5.70
2018-12-06T17:55:57.230Z,4.13
2018-12-06T17:58:24.825Z,5.13
2018-12-06T18:00:52.434Z,4.77
2018-12-06T18:03:20.088Z,4.87
2018-12-06T18:05:47.636Z,5.70
2018-12-06T18:08:15.316Z,5.20
2018-12-06T18:10:43.093Z,5.20
2018-12-06T18:13:10.634Z,5.80
2018-12-06T18:15:39.475Z,6.40
2018-12-06T18:18:07.067Z,4.60
2018-12-06T18:20:34.813Z,5.37
2018-12-06T18:23:02.340Z,4.83
2018-12-06T18:25:29.923Z,5.30
2018-12-06T18:27:57.458Z,5.20
2018-12-06T18:30:25.131Z,5.60
2018-12-06T18:32:52.678Z,4.80
2018-12-06T18:35:20.280Z,5.10
2018-12-06T18:37:47.838Z,5.90
2018-12-06T18:40:15.379Z,5.20
2018-12-06T18:42:43.000Z,5.70
2018-12-06T18:45:10.641Z,6.30
2018-12-06T18:47:38.430Z,5.60
2018-12-06T18:50:06.114Z,5.33
2018-12-06T18:52:33.722Z,4.90
2018-12-06T18:55:01.652Z,5.73
2018-12-06T18:57:29.243Z,5.90
2018-12-06T18:59:57.787Z,5.70
2018-12-06T19:02:25.659Z,6.10
2018-12-06T19:04:53.641Z,5.53
2018-12-06T19:07:21.398Z,6.20
2018-12-06T19:09:49.126Z,5.40
2018-12-06T19:12:16.682Z,6.70
2018-12-06T19:14:44.321Z,6.03
2018-12-06T19:17:12.276Z,6.03
2018-12-06T19:19:39.869Z,6.07
2018-12-06T19:22:07.817Z,6.40
2018-12-06T19:24:35.480Z,5.70
2018-12-06T19:27:03.661Z,7.20
2018-12-06T19:29:31.263Z,6.00
2018-12-06T19:31:59.107Z,7.20
2018-12-06T19:34:27.069Z,6.80
2018-12-06T19:36:55.643Z,6.50
2018-12-06T19:39:23.194Z,6.60
2018-12-06T19:41:51.195Z,6.73
2018-12-06T19:44:18.951Z,7.10
2018-12-06T19:46:46.838Z,6.27
2018-12-06T19:49:14.706Z,7.40
2018-12-06T19:51:43.289Z,7.50
2018-12-06T19:54:11.277Z,6.90
2018-12-06T19:56:39.250Z,7.87
2018-12-06T19:59:06.881Z,7.20
2018-12-06T20:01:34.785Z,7.13
2018-12-06T20:04:02.663Z,7.03
2018-12-06T20:06:30.532Z,7.03
2018-12-06T20:08:58.680Z,7.40
2018-12-06T20:11:26.265Z,7.50
2018-12-06T20:13:54.243Z,7.20
2018-12-06T20:16:21.913Z,6.93
2018-12-06T20:18:49.987Z,6.37
2018-12-06T20:21:17.611Z,8.10
2018-12-06T20:23:45.190Z,7.97
2018-12-06T20:26:12.755Z,7.20
2018-12-06T20:28:40.292Z,8.20
2018-12-06T20:31:07.950Z,6.77
2018-12-06T20:33:35.513Z,8.60
2018-12-06T20:36:03.081Z,7.70
2018-12-06T20:38:30.625Z,9.27
2018-12-06T20:40:59.216Z,8.30
2018-12-06T20:43:26.739Z,7.67
2018-12-06T20:45:54.314Z,8.10
2018-12-06T20:48:21.854Z,8.17
2018-12-06T20:50:49.674Z,9.03
2018-12-06T20:53:17.392Z,7.83
2018-12-06T20:55:44.941Z,7.87
2018-12-06T20:58:15.084Z,8.50
2018-12-06T21:00:43.036Z,7.70
2018-12-06T21:03:10.583Z,7.37
2018-12-06T21:05:38.127Z,8.80
2018-12-06T21:08:05.792Z,8.70
2018-12-06T21:10:33.340Z,8.93
2018-12-06T21:13:00.921Z,7.97
2018-12-06T21:15:28.601Z,8.40
2018-12-06T21:17:56.173Z,8.93
2018-12-06T21:20:23.863Z,8.27
2018-12-06T21:22:51.409Z,8.37
2018-12-06T21:25:19.035Z,8.63
2018-12-06T21:27:46.734Z,9.00
2018-12-06T21:30:14.378Z,8.20
2018-12-06T21:32:42.046Z,8.17
2018-12-06T21:35:09.850Z,8.20
2018-12-06T21:37:37.485Z,8.20
2018-12-06T21:40:06.329Z,8.70
2018-12-06T21:42:33.885Z,8.43
2018-12-06T21:45:02.368Z,8.43
2018-12-06T21:47:29.952Z,8.53
2018-12-06T21:49:57.484Z,8.30
2018-12-06T21:52:25.109Z,8.80
2018-12-06T21:54:53.469Z,8.43
2018-12-06T21:57:21.175Z,8.00
2018-12-06T21:59:48.755Z,7.63
2018-12-06T22:02:23.016Z,7.53
2018-12-06T22:04:51.352Z,7.40
2018-12-06T22:07:19.001Z,8.37
2018-12-06T22:09:46.561Z,7.77
2018-12-06T22:12:14.323Z,6.90
2018-12-06T22:14:41.917Z,8.07
2018-12-06T22:17:09.485Z,7.00
2018-12-06T22:19:37.022Z,7.00
2018-12-06T22:22:04.657Z,7.40
2018-12-06T22:24:32.242Z,6.27
2018-12-06T22:26:59.768Z,6.30
2018-12-06T22:29:28.402Z,5.53
2018-12-06T22:31:55.978Z,5.00
2018-12-06T22:34:23.688Z,5.00
2018-12-06T22:36:51.236Z,5.07
2018-12-06T22:39:18.848Z,5.13
2018-12-06T22:41:46.463Z,4.80
2018-12-06T22:44:14.016Z,5.00
2018-12-06T22:46:41.862Z,5.00
2018-12-06T22:49:09.466Z,4.60
2018-12-06T22:51:37.000Z,4.60
2018-12-06T22:54:04.690Z,5.67
2018-12-06T22:56:32.254Z,4.60
2018-12-06T22:59:00.909Z,4.80
2018-12-06T23:01:34.207Z,4.37
2018-12-06T23:04:01.797Z,4.40
2018-12-06T23:06:29.339Z,3.97
2018-12-06T23:08:56.883Z,4.73
2018-12-06T23:11:24.569Z,4.00
2018-12-06T23:13:52.183Z,4.30
2018-12-06T23:16:19.734Z,4.40
2018-12-06T23:18:47.366Z,5.00
2018-12-06T23:21:15.065Z,3.50
2018-12-06T23:23:42.598Z,3.83
2018-12-06T23:26:10.167Z,4.33
2018-12-06T23:28:37.707Z,3.70
2018-12-06T23:31:05.344Z,3.83
2018-12-06T23:33:32.886Z,3.77
2018-12-06T23:36:00.512Z,3.87
2018-12-06T23:38:28.378Z,3.77
2018-12-06T23:40:56.426Z,3.60
2018-12-06T23:43:23.947Z,4.20
2018-12-06T23:45:51.569Z,4.00
2018-12-06T23:48:19.163Z,3.70
2018-12-06T23:50:46.746Z,4.63
2018-12-06T23:53:14.320Z,3.40
2018-12-06T23:55:41.851Z,4.00
2018-12-06T23:58:09.432Z,3.10
